Archival Weather

South Haven Area Rgnl

South Haven, Michigan (KLWA)

Report from: Thursday, September 21, 2023 3:15 AM EDT
Current time: Sunday, July 14, 2024 7:31 AM EDT

Current weather – Weather history – Daily summaries
Weather forecast

Temperature16.0°C (60.8°F)
Dew point14.8°C (58.6°F)
Winds Calm
Visibility10 mi. (16.1 km)
Clouds Sky clear
Altimeter30.15 in.Hg (1021 mB)
Relative humidity93 %
Density altitude89 ft. (27 m)
Remarks Fully automated report
Automated weather observing station with precipitation discriminator
Flight conditions Visual Meteorological Conditions
Raw dataKLWA 210715Z AUTO 00000KT 10SM CLR 16/15 A3015 RMK AO2 T01600148
An error has occurred. This application may no longer respond until reloaded. Reload 🗙